sensor_id;sensor_type;location;lat;lon;timestamp;pressure;altitude;pressure_sealevel;temperature;humidity
21273;BME280;36726;52.328;10.552;2023-03-08T00:01:11;98871.44;;;1.06;100.00
21273;BME280;36726;52.328;10.552;2023-03-08T00:03:39;98877.72;;;1.15;100.00
21273;BME280;36726;52.328;10.552;2023-03-08T00:06:07;98881.41;;;1.23;100.00
21273;BME280;36726;52.328;10.552;2023-03-08T00:08:34;98881.50;;;1.29;100.00
21273;BME280;36726;52.328;10.552;2023-03-08T00:11:05;98883.34;;;1.33;100.00
21273;BME280;36726;52.328;10.552;2023-03-08T00:13:32;98876.53;;;1.39;100.00
21273;BME280;36726;52.328;10.552;2023-03-08T00:16:02;98882.75;;;1.44;100.00
21273;BME280;36726;52.328;10.552;2023-03-08T00:18:30;98885.44;;;1.49;100.00
21273;BME280;36726;52.328;10.552;2023-03-08T00:21:04;98901.19;;;1.55;100.00
21273;BME280;36726;52.328;10.552;2023-03-08T00:23:32;98897.81;;;1.59;100.00
21273;BME280;36726;52.328;10.552;2023-03-08T00:25:59;98900.47;;;1.62;100.00
21273;BME280;36726;52.328;10.552;2023-03-08T00:28:25;98901.44;;;1.67;100.00
21273;BME280;36726;52.328;10.552;2023-03-08T00:31:01;98896.28;;;1.70;100.00
21273;BME280;36726;52.328;10.552;2023-03-08T00:33:28;98903.28;;;1.71;100.00
21273;BME280;36726;52.328;10.552;2023-03-08T00:36:01;98911.06;;;1.69;100.00
21273;BME280;36726;52.328;10.552;2023-03-08T00:38:30;98904.09;;;1.70;100.00
21273;BME280;36726;52.328;10.552;2023-03-08T00:40:58;98912.00;;;1.71;100.00
21273;BME280;36726;52.328;10.552;2023-03-08T00:43:25;98912.84;;;1.72;100.00
21273;BME280;36726;52.328;10.552;2023-03-08T00:45:52;98914.59;;;1.71;100.00
21273;BME280;36726;52.328;10.552;2023-03-08T00:48:20;98919.84;;;1.74;100.00
21273;BME280;36726;52.328;10.552;2023-03-08T00:50:47;98922.50;;;1.76;100.00
21273;BME280;36726;52.328;10.552;2023-03-08T00:53:14;98913.84;;;1.77;100.00
21273;BME280;36726;52.328;10.552;2023-03-08T00:55:51;98921.59;;;1.75;100.00
21273;BME280;36726;52.328;10.552;2023-03-08T00:58:18;98914.66;;;1.74;100.00
21273;BME280;36726;52.328;10.552;2023-03-08T01:00:45;98914.59;;;1.71;100.00
21273;BME280;36726;52.328;10.552;2023-03-08T01:03:12;98914.59;;;1.71;100.00
21273;BME280;36726;52.328;10.552;2023-03-08T01:05:40;98921.56;;;1.72;100.00
21273;BME280;36726;52.328;10.552;2023-03-08T01:08:07;98920.75;;;1.75;100.00
21273;BME280;36726;52.328;10.552;2023-03-08T01:10:34;98912.06;;;1.76;100.00
21273;BME280;36726;52.328;10.552;2023-03-08T01:13:02;98924.31;;;1.80;100.00
21273;BME280;36726;52.328;10.552;2023-03-08T01:15:29;98916.56;;;1.83;100.00
21273;BME280;36726;52.328;10.552;2023-03-08T01:17:55;98927.00;;;1.84;100.00
21273;BME280;36726;52.328;10.552;2023-03-08T01:20:22;98920.97;;;1.85;100.00
21273;BME280;36726;52.328;10.552;2023-03-08T01:22:48;98929.72;;;1.89;100.00
21273;BME280;36726;52.328;10.552;2023-03-08T01:25:15;98917.59;;;1.91;100.00
21273;BME280;36726;52.328;10.552;2023-03-08T01:27:42;98921.13;;;1.93;100.00
21273;BME280;36726;52.328;10.552;2023-03-08T01:30:09;98925.53;;;1.97;100.00
21273;BME280;36726;52.328;10.552;2023-03-08T01:32:35;98922.09;;;1.98;100.00
21273;BME280;36726;52.328;10.552;2023-03-08T01:35:02;98920.41;;;2.00;100.00
21273;BME280;36726;52.328;10.552;2023-03-08T01:37:31;98915.22;;;2.03;100.00
21273;BME280;36726;52.328;10.552;2023-03-08T01:39:57;98920.47;;;2.04;100.00
21273;BME280;36726;52.328;10.552;2023-03-08T01:42:25;98910.94;;;2.05;100.00
21273;BME280;36726;52.328;10.552;2023-03-08T01:45:00;98910.03;;;2.03;100.00
21273;BME280;36726;52.328;10.552;2023-03-08T01:47:32;98916.09;;;2.02;100.00
21273;BME280;36726;52.328;10.552;2023-03-08T01:50:15;98906.50;;;2.01;100.00
21273;BME280;36726;52.328;10.552;2023-03-08T01:52:46;98904.81;;;2.03;100.00
21273;BME280;36726;52.328;10.552;2023-03-08T01:55:15;98903.97;;;2.04;100.00
21273;BME280;36726;52.328;10.552;2023-03-08T01:57:45;98894.38;;;2.03;100.00
21273;BME280;36726;52.328;10.552;2023-03-08T02:00:19;98897.00;;;2.04;100.00
21273;BME280;36726;52.328;10.552;2023-03-08T02:02:58;98895.28;;;2.05;100.00
21273;BME280;36726;52.328;10.552;2023-03-08T02:05:28;98892.69;;;2.05;100.00
21273;BME280;36726;52.328;10.552;2023-03-08T02:08:02;98893.59;;;2.07;100.00
21273;BME280;36726;52.328;10.552;2023-03-08T02:10:33;98891.00;;;2.08;100.00
21273;BME280;36726;52.328;10.552;2023-03-08T02:13:01;98888.44;;;2.10;100.00
21273;BME280;36726;52.328;10.552;2023-03-08T02:15:29;98884.94;;;2.09;100.00
21273;BME280;36726;52.328;10.552;2023-03-08T02:17:56;98879.78;;;2.11;100.00
21273;BME280;36726;52.328;10.552;2023-03-08T02:20:33;98888.47;;;2.13;100.00
21273;BME280;36726;52.328;10.552;2023-03-08T02:23:10;98892.88;;;2.16;100.00
21273;BME280;36726;52.328;10.552;2023-03-08T02:25:40;98893.78;;;2.16;100.00
21273;BME280;36726;52.328;10.552;2023-03-08T02:28:07;98885.09;;;2.17;100.00
21273;BME280;36726;52.328;10.552;2023-03-08T02:30:36;98899.03;;;2.19;100.00
21273;BME280;36726;52.328;10.552;2023-03-08T02:33:03;98885.16;;;2.20;100.00
21273;BME280;36726;52.328;10.552;2023-03-08T02:35:30;98893.00;;;2.22;100.00
21273;BME280;36726;52.328;10.552;2023-03-08T02:37:56;98896.47;;;2.22;100.00
21273;BME280;36726;52.328;10.552;2023-03-08T02:40:23;98890.41;;;2.22;99.73
21273;BME280;36726;52.328;10.552;2023-03-08T02:42:50;98883.44;;;2.22;99.98
21273;BME280;36726;52.328;10.552;2023-03-08T02:45:18;98886.91;;;2.21;98.94
21273;BME280;36726;52.328;10.552;2023-03-08T02:47:45;98891.22;;;2.21;98.85
21273;BME280;36726;52.328;10.552;2023-03-08T02:50:12;98888.59;;;2.19;98.87
21273;BME280;36726;52.328;10.552;2023-03-08T02:52:38;98890.38;;;2.20;98.62
21273;BME280;36726;52.328;10.552;2023-03-08T02:55:05;98893.78;;;2.16;98.73
21273;BME280;36726;52.328;10.552;2023-03-08T02:57:32;98886.75;;;2.13;99.07
21273;BME280;36726;52.328;10.552;2023-03-08T02:59:59;98890.19;;;2.11;98.62
21273;BME280;36726;52.328;10.552;2023-03-08T03:02:27;98893.63;;;2.10;99.05
21273;BME280;36726;52.328;10.552;2023-03-08T03:04:54;98895.41;;;2.11;98.64
21273;BME280;36726;52.328;10.552;2023-03-08T03:07:20;98886.72;;;2.12;98.64
21273;BME280;36726;52.328;10.552;2023-03-08T03:09:48;98878.03;;;2.13;98.60
21273;BME280;36726;52.328;10.552;2023-03-08T03:12:16;98873.72;;;2.13;98.37
21273;BME280;36726;52.328;10.552;2023-03-08T03:14:42;98881.63;;;2.17;98.52
21273;BME280;36726;52.328;10.552;2023-03-08T03:17:09;98879.94;;;2.20;98.68
21273;BME280;36726;52.328;10.552;2023-03-08T03:19:37;98883.44;;;2.22;98.31
21273;BME280;36726;52.328;10.552;2023-03-08T03:22:03;98876.53;;;2.24;98.49
21273;BME280;36726;52.328;10.552;2023-03-08T03:24:30;98879.25;;;2.30;98.54
21273;BME280;36726;52.328;10.552;2023-03-08T03:26:58;98879.38;;;2.36;98.90
21273;BME280;36726;52.328;10.552;2023-03-08T03:29:29;98881.22;;;2.42;98.86
21273;BME280;36726;52.328;10.552;2023-03-08T03:32:05;98874.34;;;2.48;98.99
21273;BME280;36726;52.328;10.552;2023-03-08T03:34:33;98870.97;;;2.52;98.38
21273;BME280;36726;52.328;10.552;2023-03-08T03:36:59;98880.56;;;2.55;98.49
21273;BME280;36726;52.328;10.552;2023-03-08T03:39:26;98877.09;;;2.56;98.00
21273;BME280;36726;52.328;10.552;2023-03-08T03:41:55;98882.38;;;2.59;97.81
21273;BME280;36726;52.328;10.552;2023-03-08T03:44:22;98881.56;;;2.61;97.68
21273;BME280;36726;52.328;10.552;2023-03-08T03:46:49;98884.19;;;2.64;97.83
21273;BME280;36726;52.328;10.552;2023-03-08T03:49:21;98875.53;;;2.65;97.51
21273;BME280;36726;52.328;10.552;2023-03-08T03:51:48;98876.41;;;2.67;97.14
21273;BME280;36726;52.328;10.552;2023-03-08T03:54:20;98872.09;;;2.68;97.21
21273;BME280;36726;52.328;10.552;2023-03-08T03:56:47;98879.09;;;2.70;96.98
21273;BME280;36726;52.328;10.552;2023-03-08T03:59:16;98878.25;;;2.73;97.20
21273;BME280;36726;52.328;10.552;2023-03-08T04:01:43;98877.41;;;2.74;96.73
21273;BME280;36726;52.328;10.552;2023-03-08T04:04:18;98882.63;;;2.72;96.28
21273;BME280;36726;52.328;10.552;2023-03-08T04:06:46;98873.81;;;2.67;96.31
21273;BME280;36726;52.328;10.552;2023-03-08T04:09:17;98880.69;;;2.62;96.04
21273;BME280;36726;52.328;10.552;2023-03-08T04:11:50;98880.50;;;2.52;95.71
21273;BME280;36726;52.328;10.552;2023-03-08T04:14:19;98875.94;;;2.40;95.95
21273;BME280;36726;52.328;10.552;2023-03-08T04:16:47;98883.59;;;2.31;95.98
21273;BME280;36726;52.328;10.552;2023-03-08T04:19:24;98881.69;;;2.21;96.18
21273;BME280;36726;52.328;10.552;2023-03-08T04:21:54;98877.19;;;2.13;95.96
21273;BME280;36726;52.328;10.552;2023-03-08T04:24:23;98881.38;;;2.06;96.68
21273;BME280;36726;52.328;10.552;2023-03-08T04:26:54;98879.53;;;2.00;96.45
21273;BME280;36726;52.328;10.552;2023-03-08T04:29:21;98874.19;;;1.93;96.67
21273;BME280;36726;52.328;10.552;2023-03-08T04:31:48;98871.44;;;1.85;96.58
21273;BME280;36726;52.328;10.552;2023-03-08T04:34:17;98874.78;;;1.78;96.70
21273;BME280;36726;52.328;10.552;2023-03-08T04:36:47;98872.06;;;1.74;96.89
21273;BME280;36726;52.328;10.552;2023-03-08T04:39:14;98873.69;;;1.67;96.97
21273;BME280;36726;52.328;10.552;2023-03-08T04:41:40;98875.34;;;1.64;97.03
21273;BME280;36726;52.328;10.552;2023-03-08T04:44:20;98873.50;;;1.60;97.07
21273;BME280;36726;52.328;10.552;2023-03-08T04:46:49;98873.38;;;1.54;97.34
21273;BME280;36726;52.328;10.552;2023-03-08T04:49:26;98868.13;;;1.52;97.31
21273;BME280;36726;52.328;10.552;2023-03-08T04:51:58;98862.84;;;1.48;97.49
21273;BME280;36726;52.328;10.552;2023-03-08T04:54:25;98867.13;;;1.44;97.74
21273;BME280;36726;52.328;10.552;2023-03-08T04:56:59;98860.09;;;1.42;98.04
21273;BME280;36726;52.328;10.552;2023-03-08T04:59:25;98858.34;;;1.41;98.23
21273;BME280;36726;52.328;10.552;2023-03-08T05:01:55;98865.22;;;1.37;98.35
21273;BME280;36726;52.328;10.552;2023-03-08T05:04:23;98870.38;;;1.36;98.16
21273;BME280;36726;52.328;10.552;2023-03-08T05:06:50;98868.59;;;1.33;98.30
21273;BME280;36726;52.328;10.552;2023-03-08T05:09:22;98866.78;;;1.29;98.39
21273;BME280;36726;52.328;10.552;2023-03-08T05:11:50;98867.56;;;1.27;98.78
21273;BME280;36726;52.328;10.552;2023-03-08T05:14:16;98877.06;;;1.25;98.86
21273;BME280;36726;52.328;10.552;2023-03-08T05:16:43;98871.88;;;1.25;98.59
21273;BME280;36726;52.328;10.552;2023-03-08T05:19:10;98870.13;;;1.24;98.72
21273;BME280;36726;52.328;10.552;2023-03-08T05:21:44;98867.47;;;1.21;99.02
21273;BME280;36726;52.328;10.552;2023-03-08T05:24:12;98870.88;;;1.20;98.87
21273;BME280;36726;52.328;10.552;2023-03-08T05:26:39;98878.66;;;1.18;98.95
21273;BME280;36726;52.328;10.552;2023-03-08T05:29:07;98871.66;;;1.16;99.09
21273;BME280;36726;52.328;10.552;2023-03-08T05:31:35;98869.03;;;1.14;98.98
21273;BME280;36726;52.328;10.552;2023-03-08T05:34:05;98866.44;;;1.16;99.43
21273;BME280;36726;52.328;10.552;2023-03-08T05:36:35;98873.47;;;1.18;99.55
21273;BME280;36726;52.328;10.552;2023-03-08T05:39:04;98872.72;;;1.24;99.63
21273;BME280;36726;52.328;10.552;2023-03-08T05:41:55;98864.25;;;1.34;99.64
21273;BME280;36726;52.328;10.552;2023-03-08T05:44:27;98864.44;;;1.43;99.54
21273;BME280;36726;52.328;10.552;2023-03-08T05:46:56;98862.84;;;1.48;99.68
21273;BME280;36726;52.328;10.552;2023-03-08T05:49:24;98857.59;;;1.46;99.46
21273;BME280;36726;52.328;10.552;2023-03-08T05:51:51;98853.22;;;1.45;99.21
21273;BME280;36726;52.328;10.552;2023-03-08T05:54:18;98859.31;;;1.46;99.15
21273;BME280;36726;52.328;10.552;2023-03-08T05:56:47;98862.84;;;1.48;99.02
21273;BME280;36726;52.328;10.552;2023-03-08T05:59:22;98847.22;;;1.48;98.95
21273;BME280;36726;52.328;10.552;2023-03-08T06:01:49;98845.53;;;1.50;99.38
21273;BME280;36726;52.328;10.552;2023-03-08T06:04:23;98831.63;;;1.51;99.23
21273;BME280;36726;52.328;10.552;2023-03-08T06:06:50;98840.31;;;1.50;99.48
21273;BME280;36726;52.328;10.552;2023-03-08T06:09:20;98839.44;;;1.49;99.42
21273;BME280;36726;52.328;10.552;2023-03-08T06:11:47;98842.91;;;1.50;99.53
21273;BME280;36726;52.328;10.552;2023-03-08T06:14:13;98841.16;;;1.49;98.63
21273;BME280;36726;52.328;10.552;2023-03-08T06:16:40;98846.34;;;1.49;99.14
21273;BME280;36726;52.328;10.552;2023-03-08T06:19:07;98848.19;;;1.53;99.11
21273;BME280;36726;52.328;10.552;2023-03-08T06:21:35;98846.56;;;1.59;98.79
21273;BME280;36726;52.328;10.552;2023-03-08T06:24:03;98855.44;;;1.67;98.63
21273;BME280;36726;52.328;10.552;2023-03-08T06:26:29;98854.72;;;1.74;98.31
21273;BME280;36726;52.328;10.552;2023-03-08T06:28:56;98855.72;;;1.82;98.50
21273;BME280;36726;52.328;10.552;2023-03-08T06:31:27;98854.13;;;1.89;98.08
21273;BME280;36726;52.328;10.552;2023-03-08T06:33:54;98856.78;;;1.92;97.53
21273;BME280;36726;52.328;10.552;2023-03-08T06:36:23;98860.31;;;1.94;97.38
21273;BME280;36726;52.328;10.552;2023-03-08T06:38:50;98863.81;;;1.96;97.57
21273;BME280;36726;52.328;10.552;2023-03-08T06:41:18;98870.91;;;2.03;97.12
21273;BME280;36726;52.328;10.552;2023-03-08T06:43:48;98864.16;;;2.13;97.24
21273;BME280;36726;52.328;10.552;2023-03-08T06:46:17;98868.66;;;2.23;97.24
21273;BME280;36726;52.328;10.552;2023-03-08T06:48:45;98862.72;;;2.31;96.65
21273;BME280;36726;52.328;10.552;2023-03-08T06:51:11;98866.38;;;2.39;96.46
21273;BME280;36726;52.328;10.552;2023-03-08T06:53:42;98863.91;;;2.48;96.26
21273;BME280;36726;52.328;10.552;2023-03-08T06:56:11;98851.00;;;2.54;95.90
21273;BME280;36726;52.328;10.552;2023-03-08T06:58:39;98847.66;;;2.64;95.85
21273;BME280;36726;52.328;10.552;2023-03-08T07:01:05;98853.00;;;2.70;95.01
21273;BME280;36726;52.328;10.552;2023-03-08T07:03:32;98859.16;;;2.74;94.40
21273;BME280;36726;52.328;10.552;2023-03-08T07:06:09;98859.19;;;2.78;94.00
21273;BME280;36726;52.328;10.552;2023-03-08T07:08:36;98854.13;;;2.87;93.64
21273;BME280;36726;52.328;10.552;2023-03-08T07:11:04;98856.88;;;2.96;93.77
21273;BME280;36726;52.328;10.552;2023-03-08T07:13:32;98854.41;;;3.05;91.78
21273;BME280;36726;52.328;10.552;2023-03-08T07:15:58;98857.22;;;3.17;91.06
21273;BME280;36726;52.328;10.552;2023-03-08T07:18:25;98859.00;;;3.22;89.68
21273;BME280;36726;52.328;10.552;2023-03-08T07:20:53;98858.16;;;3.24;89.33
21273;BME280;36726;52.328;10.552;2023-03-08T07:23:21;98855.53;;;3.23;87.89
21273;BME280;36726;52.328;10.552;2023-03-08T07:25:48;98856.47;;;3.26;88.38
21273;BME280;36726;52.328;10.552;2023-03-08T07:28:15;98850.38;;;3.27;88.18
21273;BME280;36726;52.328;10.552;2023-03-08T07:30:49;98852.16;;;3.30;88.46
21273;BME280;36726;52.328;10.552;2023-03-08T07:33:18;98847.03;;;3.36;88.87
21273;BME280;36726;52.328;10.552;2023-03-08T07:35:46;98841.09;;;3.49;89.07
21273;BME280;36726;52.328;10.552;2023-03-08T07:38:13;98837.75;;;3.59;89.57
21273;BME280;36726;52.328;10.552;2023-03-08T07:40:40;98838.75;;;3.70;89.37
21273;BME280;36726;52.328;10.552;2023-03-08T07:43:07;98829.25;;;3.76;89.69
21273;BME280;36726;52.328;10.552;2023-03-08T07:45:53;98823.22;;;3.82;89.79
21273;BME280;36726;52.328;10.552;2023-03-08T07:48:20;98818.00;;;3.83;89.17
21273;BME280;36726;52.328;10.552;2023-03-08T07:50:46;98824.09;;;3.84;88.55
21273;BME280;36726;52.328;10.552;2023-03-08T07:53:13;98820.63;;;3.86;88.07
21273;BME280;36726;52.328;10.552;2023-03-08T07:55:40;98812.78;;;3.86;87.90
21273;BME280;36726;52.328;10.552;2023-03-08T07:58:06;98808.50;;;3.91;87.92
21273;BME280;36726;52.328;10.552;2023-03-08T08:00:33;98801.56;;;3.96;87.53
21273;BME280;36726;52.328;10.552;2023-03-08T08:02:59;98809.50;;;4.04;87.04
21273;BME280;36726;52.328;10.552;2023-03-08T08:05:26;98799.97;;;4.12;87.37
21273;BME280;36726;52.328;10.552;2023-03-08T08:07:53;98798.31;;;4.18;85.69
21273;BME280;36726;52.328;10.552;2023-03-08T08:10:19;98798.34;;;4.24;85.86
21273;BME280;36726;52.328;10.552;2023-03-08T08:12:46;98790.59;;;4.32;85.75
21273;BME280;36726;52.328;10.552;2023-03-08T08:15:12;98798.53;;;4.41;85.36
21273;BME280;36726;52.328;10.552;2023-03-08T08:17:39;98795.91;;;4.44;84.89
21273;BME280;36726;52.328;10.552;2023-03-08T08:20:05;98792.47;;;4.48;83.82
21273;BME280;36726;52.328;10.552;2023-03-08T08:22:36;98802.09;;;4.52;83.12
21273;BME280;36726;52.328;10.552;2023-03-08T08:25:05;98798.72;;;4.64;84.12
21273;BME280;36726;52.328;10.552;2023-03-08T08:27:32;98791.81;;;4.75;83.26
21273;BME280;36726;52.328;10.552;2023-03-08T08:29:59;98794.47;;;4.82;83.17
21273;BME280;36726;52.328;10.552;2023-03-08T08:32:25;98788.44;;;4.91;82.65
21273;BME280;36726;52.328;10.552;2023-03-08T08:34:52;98789.34;;;4.97;82.18
21273;BME280;36726;52.328;10.552;2023-03-08T08:37:19;98789.41;;;5.05;81.01
21273;BME280;36726;52.328;10.552;2023-03-08T08:39:45;98792.03;;;5.11;80.64
21273;BME280;36726;52.328;10.552;2023-03-08T08:42:12;98783.34;;;5.12;80.06
21273;BME280;36726;52.328;10.552;2023-03-08T08:44:38;98783.34;;;5.12;78.51
21273;BME280;36726;52.328;10.552;2023-03-08T08:47:04;98782.50;;;5.20;79.16
21273;BME280;36726;52.328;10.552;2023-03-08T08:49:31;98783.44;;;5.30;78.83
21273;BME280;36726;52.328;10.552;2023-03-08T08:51:57;98779.13;;;5.40;78.53
21273;BME280;36726;52.328;10.552;2023-03-08T08:54:24;98785.25;;;5.48;78.12
21273;BME280;36726;52.328;10.552;2023-03-08T08:56:50;98786.16;;;5.53;77.54
21273;BME280;36726;52.328;10.552;2023-03-08T08:59:17;98785.28;;;5.55;76.52
21273;BME280;36726;52.328;10.552;2023-03-08T09:01:44;98781.81;;;5.65;76.50
21273;BME280;36726;52.328;10.552;2023-03-08T09:04:11;98780.09;;;5.69;74.41
21273;BME280;36726;52.328;10.552;2023-03-08T09:06:39;98780.97;;;5.68;74.88
21273;BME280;36726;52.328;10.552;2023-03-08T09:09:06;98781.84;;;5.67;75.21
21273;BME280;36726;52.328;10.552;2023-03-08T09:11:33;98779.22;;;5.70;74.67
21273;BME280;36726;52.328;10.552;2023-03-08T09:14:14;98776.63;;;5.79;74.78
21273;BME280;36726;52.328;10.552;2023-03-08T09:16:40;98774.94;;;5.85;74.81
21273;BME280;36726;52.328;10.552;2023-03-08T09:19:07;98767.09;;;5.91;73.96
21273;BME280;36726;52.328;10.552;2023-03-08T09:21:34;98772.34;;;5.90;73.34
21273;BME280;36726;52.328;10.552;2023-03-08T09:24:04;98768.84;;;6.00;73.57
21273;BME280;36726;52.328;10.552;2023-03-08T09:26:32;98768.91;;;6.12;74.05
21273;BME280;36726;52.328;10.552;2023-03-08T09:28:59;98761.88;;;6.23;73.93
21273;BME280;36726;52.328;10.552;2023-03-08T09:31:31;98761.03;;;6.35;73.86
21273;BME280;36726;52.328;10.552;2023-03-08T09:33:58;98754.91;;;6.43;73.51
21273;BME280;36726;52.328;10.552;2023-03-08T09:36:25;98753.16;;;6.45;73.91
21273;BME280;36726;52.328;10.552;2023-03-08T09:38:54;98749.66;;;6.49;73.61
21273;BME280;36726;52.328;10.552;2023-03-08T09:46:30;98736.50;;;6.72;72.05
21273;BME280;36726;52.328;10.552;2023-03-08T09:49:00;98729.47;;;6.81;72.03
21273;BME280;36726;52.328;10.552;2023-03-08T09:51:33;98729.47;;;6.83;70.99
21273;BME280;36726;52.328;10.552;2023-03-08T09:54:05;98723.34;;;6.91;71.01
21273;BME280;36726;52.328;10.552;2023-03-08T09:56:41;98718.06;;;6.97;71.07
21273;BME280;36726;52.328;10.552;2023-03-08T09:59:13;98713.66;;;7.01;70.90
21273;BME280;36726;52.328;10.552;2023-03-08T10:01:58;98711.03;;;7.05;71.14
21273;BME280;36726;52.328;10.552;2023-03-08T10:10:29;98704.00;;;7.16;69.67
21273;BME280;36726;52.328;10.552;2023-03-08T10:16:08;98692.56;;;7.31;68.29
21273;BME280;36726;52.328;10.552;2023-03-08T10:18:51;98668.84;;;7.40;68.23
21273;BME280;36726;52.328;10.552;2023-03-08T10:21:21;98667.91;;;7.49;68.61
21273;BME280;36726;52.328;10.552;2023-03-08T10:23:57;98667.00;;;7.54;67.57
21273;BME280;36726;52.328;10.552;2023-03-08T10:26:25;98663.47;;;7.60;68.10
21273;BME280;36726;52.328;10.552;2023-03-08T10:28:52;98652.91;;;7.67;67.98
21273;BME280;36726;52.328;10.552;2023-03-08T10:31:27;98654.59;;;7.71;66.69
21273;BME280;36726;52.328;10.552;2023-03-08T10:34:05;98647.56;;;7.75;66.62
21273;BME280;36726;52.328;10.552;2023-03-08T10:36:55;98644.03;;;7.79;65.47
21273;BME280;36726;52.328;10.552;2023-03-08T10:39:22;98652.81;;;7.79;66.06
21273;BME280;36726;52.328;10.552;2023-03-08T10:41:52;98644.03;;;7.79;66.15
21273;BME280;36726;52.328;10.552;2023-03-08T10:44:37;98644.94;;;7.73;64.13
21273;BME280;36726;52.328;10.552;2023-03-08T10:47:34;98638.88;;;7.67;64.81
21273;BME280;36726;52.328;10.552;2023-03-08T10:52:34;98631.00;;;7.59;65.12
21273;BME280;36726;52.328;10.552;2023-03-08T10:55:11;98623.16;;;7.52;64.74
21273;BME280;36726;52.328;10.552;2023-03-08T10:57:41;98622.28;;;7.54;65.04
21273;BME280;36726;52.328;10.552;2023-03-08T11:00:31;98619.72;;;7.45;63.81
21273;BME280;36726;52.328;10.552;2023-03-08T11:03:17;98615.38;;;7.40;64.83
21273;BME280;36726;52.328;10.552;2023-03-08T11:06:14;98610.97;;;7.42;63.91
21273;BME280;36726;52.328;10.552;2023-03-08T11:09:01;98609.25;;;7.36;63.36
21273;BME280;36726;52.328;10.552;2023-03-08T11:11:39;98609.25;;;7.34;64.49
21273;BME280;36726;52.328;10.552;2023-03-08T11:14:08;98615.41;;;7.30;64.39
21273;BME280;36726;52.328;10.552;2023-03-08T11:34:23;98601.47;;;7.12;64.92
21273;BME280;36726;52.328;10.552;2023-03-08T11:39:44;98602.38;;;7.09;63.86
21273;BME280;36726;52.328;10.552;2023-03-08T11:42:23;98598.88;;;7.04;63.66
21273;BME280;36726;52.328;10.552;2023-03-08T11:53:16;98596.31;;;6.91;62.82
21273;BME280;36726;52.328;10.552;2023-03-08T11:58:49;98595.47;;;6.87;62.86
21273;BME280;36726;52.328;10.552;2023-03-08T12:01:20;98606.84;;;6.89;63.15
21273;BME280;36726;52.328;10.552;2023-03-08T12:03:50;98599.84;;;6.91;64.68
21273;BME280;36726;52.328;10.552;2023-03-08T12:06:25;98595.41;;;6.93;64.89
21273;BME280;36726;52.328;10.552;2023-03-08T12:09:02;98593.66;;;6.95;64.51
21273;BME280;36726;52.328;10.552;2023-03-08T12:11:41;98598.88;;;7.04;65.14
21273;BME280;36726;52.328;10.552;2023-03-08T12:14:15;98600.59;;;7.14;65.17
21273;BME280;36726;52.328;10.552;2023-03-08T12:16:50;98601.44;;;7.21;65.05
21273;BME280;36726;52.328;10.552;2023-03-08T12:19:25;98597.00;;;7.32;65.47
21273;BME280;36726;52.328;10.552;2023-03-08T12:22:04;98596.94;;;7.40;65.98
21273;BME280;36726;52.328;10.552;2023-03-08T12:24:43;98593.44;;;7.44;66.55
21273;BME280;36726;52.328;10.552;2023-03-08T12:32:18;98599.56;;;7.43;67.50
21273;BME280;36726;52.328;10.552;2023-03-08T12:34:46;98597.84;;;7.40;67.97
21273;BME280;36726;52.328;10.552;2023-03-08T12:37:26;98594.34;;;7.38;68.40
21273;BME280;36726;52.328;10.552;2023-03-08T12:40:39;98607.53;;;7.29;69.56
21273;BME280;36726;52.328;10.552;2023-03-08T12:43:12;98596.19;;;7.18;70.45
21273;BME280;36726;52.328;10.552;2023-03-08T12:45:41;98599.72;;;7.15;71.55
21273;BME280;36726;52.328;10.552;2023-03-08T12:48:16;98588.31;;;7.16;72.23
21273;BME280;36726;52.328;10.552;2023-03-08T12:55:58;98580.28;;;7.41;73.20
21273;BME280;36726;52.328;10.552;2023-03-08T12:58:25;98573.22;;;7.46;72.79
21273;BME280;36726;52.328;10.552;2023-03-08T13:01:05;98575.88;;;7.43;72.66
21273;BME280;36726;52.328;10.552;2023-03-08T13:09:19;98575.97;;;7.27;73.17
21273;BME280;36726;52.328;10.552;2023-03-08T13:11:59;98565.44;;;7.27;73.61
21273;BME280;36726;52.328;10.552;2023-03-08T13:14:39;98567.22;;;7.27;72.75
21273;BME280;36726;52.328;10.552;2023-03-08T13:17:31;98569.84;;;7.24;72.83
21273;BME280;36726;52.328;10.552;2023-03-08T13:20:11;98568.16;;;7.15;71.64
21273;BME280;36726;52.328;10.552;2023-03-08T13:22:49;98559.34;;;7.24;77.47
21273;BME280;36726;52.328;10.552;2023-03-08T13:28:18;98558.25;;;7.57;72.35
21273;BME280;36726;52.328;10.552;2023-03-08T13:30:51;98560.91;;;7.52;72.33
21273;BME280;36726;52.328;10.552;2023-03-08T13:33:25;98555.69;;;7.48;71.88
21273;BME280;36726;52.328;10.552;2023-03-08T13:36:04;98557.53;;;7.33;71.51
21273;BME280;36726;52.328;10.552;2023-03-08T13:38:34;98562.91;;;7.14;70.88
21273;BME280;36726;52.328;10.552;2023-03-08T13:41:01;98570.00;;;6.95;70.58
21273;BME280;36726;52.328;10.552;2023-03-08T13:43:30;98563.09;;;6.82;70.70
21273;BME280;36726;52.328;10.552;2023-03-08T13:46:10;98551.72;;;6.70;70.53
21273;BME280;36726;52.328;10.552;2023-03-08T13:48:43;98551.78;;;6.62;71.59
21273;BME280;36726;52.328;10.552;2023-03-08T13:51:15;98550.91;;;6.60;72.36
21273;BME280;36726;52.328;10.552;2023-03-08T13:53:43;98543.06;;;6.51;73.57
21273;BME280;36726;52.328;10.552;2023-03-08T13:56:21;98554.47;;;6.46;73.80
21273;BME280;36726;52.328;10.552;2023-03-08T13:58:48;98552.72;;;6.36;74.05
21273;BME280;36726;52.328;10.552;2023-03-08T14:01:18;98550.13;;;6.31;74.32
21273;BME280;36726;52.328;10.552;2023-03-08T14:03:45;98548.38;;;6.30;74.48
21273;BME280;36726;52.328;10.552;2023-03-08T14:06:27;98552.78;;;6.29;74.62
21273;BME280;36726;52.328;10.552;2023-03-08T14:08:56;98551.88;;;6.29;75.23
21273;BME280;36726;52.328;10.552;2023-03-08T14:11:31;98548.38;;;6.27;75.25
21273;BME280;36726;52.328;10.552;2023-03-08T14:14:00;98547.50;;;6.25;75.39
21273;BME280;36726;52.328;10.552;2023-03-08T14:18:55;98543.13;;;6.21;75.77
21273;BME280;36726;52.328;10.552;2023-03-08T14:21:28;98544.06;;;6.17;74.76
21273;BME280;36726;52.328;10.552;2023-03-08T14:23:58;98550.19;;;6.11;74.54